Time;durP1;ratioP1;P1;durP2;ratioP2;P2;SDS_P1;SDS_P2;PMS_P1;PMS_P2;Temp;Humidity;BMP_temperature;BMP_pressure;BME280_temperature;BME280_humidity;BME280_pressure;Samples;Min_cycle;Max_cycle;Signal;HPM_P1;HPM_P2
2023/10/07 00:00:56;;;;;;;;;;;;;;;19.84;52.07;97922.11;606000;234;64882;-67
2023/10/07 00:03:23;;;;;;;;;;;;;;;19.86;52.04;97913.84;605924;234;62586;-67
2023/10/07 00:05:50;;;;;;;;;;;;;;;19.86;52.05;97919.19;605967;234;67257;-67
2023/10/07 00:08:21;;;;;;;;;;;;;;;19.86;52.10;97921.84;606024;234;66934;-66
2023/10/07 00:10:50;;;;;;;;;;;;;;;19.85;52.08;97912.24;606025;234;62759;-71
2023/10/07 00:13:20;;;;;;;;;;;;;;;19.84;52.04;97919.44;604363;234;67117;-71
2023/10/07 00:15:53;;;;;;;;;;;;;;;19.85;52.12;97912.24;602608;235;67161;-72
2023/10/07 00:18:18;;;;;;;;;;;;;;;19.83;51.99;97909.00;602344;234;64519;-72
2023/10/07 00:20:55;;;;;;;;;;;;;;;19.84;51.91;97902.64;602574;235;67133;-72
2023/10/07 00:23:26;;;;;;;;;;;;;;;19.83;51.90;97899.13;602598;235;64942;-72
2023/10/07 00:25:54;;;;;;;;;;;;;;;19.82;51.84;97892.19;602609;234;62331;-72
2023/10/07 00:28:32;;;;;;;;;;;;;;;19.83;51.72;97890.33;602617;235;65042;-72
2023/10/07 00:31:02;;;;;;;;;;;;;;;19.83;51.75;97893.00;602520;235;67253;-72
2023/10/07 00:33:27;;;;;;;;;;;;;;;19.82;51.83;97891.39;602474;235;64500;-67
2023/10/07 00:35:55;;;;;;;;;;;;;;;19.82;51.80;97900.20;602602;235;64821;-67
2023/10/07 00:38:24;;;;;;;;;;;;;;;19.82;51.77;97891.39;602623;235;65580;-67
2023/10/07 00:41:03;;;;;;;;;;;;;;;19.82;51.77;97891.39;602598;235;64534;-67
2023/10/07 00:43:30;;;;;;;;;;;;;;;19.81;51.65;97890.59;602446;235;64837;-67
2023/10/07 00:46:24;;;;;;;;;;;;;;;19.82;51.67;97891.39;602598;235;65043;-67
2023/10/07 00:48:57;;;;;;;;;;;;;;;19.81;51.60;97892.45;601961;235;63346;-67
2023/10/07 00:51:41;;;;;;;;;;;;;;;19.81;51.63;97889.78;602263;235;67235;-67
2023/10/07 00:57:06;;;;;;;;;;;;;;;19.81;51.54;97892.45;602570;235;65048;-67
2023/10/07 00:59:24;;;;;;;;;;;;;;;19.80;51.51;97882.81;602027;235;67336;-66
2023/10/07 01:01:55;;;;;;;;;;;;;;;19.80;51.48;97875.61;602592;235;67244;-67
2023/10/07 01:04:21;;;;;;;;;;;;;;;19.80;51.47;97872.14;602598;235;69445;-67
2023/10/07 01:06:49;;;;;;;;;;;;;;;19.80;51.45;97870.28;602587;235;66925;-67
2023/10/07 01:09:22;;;;;;;;;;;;;;;19.79;51.50;97860.67;602581;235;67196;-67
2023/10/07 01:11:46;;;;;;;;;;;;;;;19.80;51.46;97859.61;602388;235;63510;-67
2023/10/07 01:14:13;;;;;;;;;;;;;;;19.80;51.43;97858.81;605478;234;67285;-67
2023/10/07 01:16:41;;;;;;;;;;;;;;;19.79;51.41;97854.54;606023;234;64776;-67
2023/10/07 01:21:55;;;;;;;;;;;;;;;19.79;51.38;97854.54;606011;234;67146;-68
2023/10/07 01:24:34;;;;;;;;;;;;;;;19.79;51.50;97854.54;606030;234;66996;-72
2023/10/07 01:26:53;;;;;;;;;;;;;;;19.78;51.40;97844.90;605530;234;64747;-72
2023/10/07 01:29:21;;;;;;;;;;;;;;;19.78;51.43;97844.90;606047;234;67243;-72
2023/10/07 01:32:35;;;;;;;;;;;;;;;19.77;51.26;97838.77;606017;234;64814;-67
2023/10/07 01:34:19;;;;;;;;;;;;;;;19.78;51.19;97839.56;600970;234;62519;-72
2023/10/07 01:36:46;;;;;;;;;;;;;;;19.78;51.21;97842.23;606007;234;66725;-72
2023/10/07 01:39:15;;;;;;;;;;;;;;;19.78;51.30;97836.90;606062;234;64755;-72
2023/10/07 01:41:45;;;;;;;;;;;;;;;19.77;51.11;97833.43;606008;234;62433;-72
2023/10/07 01:44:15;;;;;;;;;;;;;;;19.77;51.15;97844.09;606042;234;64859;-72
2023/10/07 01:46:43;;;;;;;;;;;;;;;19.76;51.16;97834.49;606012;234;67155;-72
2023/10/07 01:49:17;;;;;;;;;;;;;;;19.76;51.35;97828.36;606006;234;63475;-72
2023/10/07 01:51:44;;;;;;;;;;;;;;;19.76;51.60;97829.16;605982;234;64884;-73
2023/10/07 01:54:15;;;;;;;;;;;;;;;19.75;51.72;97827.52;606064;234;65448;-73
2023/10/07 01:56:42;;;;;;;;;;;;;;;19.76;51.78;97839.02;606027;234;64688;-71
2023/10/07 01:59:19;;;;;;;;;;;;;;;19.75;51.54;97838.19;606026;234;67183;-71
2023/10/07 02:01:42;;;;;;;;;;;;;;;19.74;51.44;97841.92;605270;234;67322;-72
2023/10/07 02:04:26;;;;;;;;;;;;;;;19.74;51.24;97839.25;606001;234;62428;-72
2023/10/07 02:06:50;;;;;;;;;;;;;;;19.73;51.63;97835.78;604978;234;64893;-72
2023/10/07 02:09:08;;;;;;;;;;;;;;;19.73;51.36;97835.78;605485;234;64816;-72
2023/10/07 02:11:36;;;;;;;;;;;;;;;19.74;51.04;97840.05;606036;234;64612;-72
2023/10/07 02:14:04;;;;;;;;;;;;;;;19.73;50.78;97843.78;605979;234;64849;-72
2023/10/07 02:16:34;;;;;;;;;;;;;;;19.73;50.73;97840.31;606015;234;66894;-72
2023/10/07 02:19:00;;;;;;;;;;;;;;;19.73;50.70;97834.98;606028;234;65415;-72
2023/10/07 02:21:28;;;;;;;;;;;;;;;19.73;50.63;97832.31;606014;234;64435;-72
2023/10/07 02:23:55;;;;;;;;;;;;;;;19.73;50.60;97840.31;606025;234;67074;-72
2023/10/07 02:26:24;;;;;;;;;;;;;;;19.72;50.67;97834.18;605996;234;65043;-72
2023/10/07 02:28:55;;;;;;;;;;;;;;;19.72;50.62;97834.18;606004;234;65818;-72
2023/10/07 02:31:25;;;;;;;;;;;;;;;19.73;50.66;97837.64;606014;234;64721;-72
2023/10/07 02:33:53;;;;;;;;;;;;;;;19.72;50.74;97842.17;606019;234;64758;-72
2023/10/07 02:36:36;;;;;;;;;;;;;;;19.72;50.60;97838.67;606024;234;67098;-73
2023/10/07 02:39:18;;;;;;;;;;;;;;;19.72;50.41;97844.84;605957;234;66866;-72
2023/10/07 02:41:34;;;;;;;;;;;;;;;19.71;50.54;97843.20;605272;234;63457;-72
2023/10/07 02:44:05;;;;;;;;;;;;;;;19.71;50.62;97843.20;606050;234;67159;-72
2023/10/07 02:46:33;;;;;;;;;;;;;;;19.71;50.45;97840.55;606019;234;64595;-72
2023/10/07 02:49:05;;;;;;;;;;;;;;;19.70;50.62;97832.80;606023;234;64580;-72
2023/10/07 02:51:34;;;;;;;;;;;;;;;19.70;50.64;97840.80;605977;234;64833;-72
2023/10/07 02:54:15;;;;;;;;;;;;;;;19.70;50.62;97843.47;606009;234;67073;-72
2023/10/07 02:56:43;;;;;;;;;;;;;;;19.70;50.96;97840.80;605526;234;62491;-72
2023/10/07 03:00:10;;;;;;;;;;;;;;;19.70;50.69;97841.61;606010;234;68059;-73
2023/10/07 03:01:58;;;;;;;;;;;;;;;19.69;50.53;97837.30;600958;234;64841;-73
2023/10/07 03:04:12;;;;;;;;;;;;;;;19.69;50.18;97842.64;605277;234;62485;-73
2023/10/07 03:06:46;;;;;;;;;;;;;;;19.67;50.27;97836.76;605996;234;67114;-73
2023/10/07 03:09:18;;;;;;;;;;;;;;;19.68;50.26;97838.36;605798;234;66636;-73
2023/10/07 03:11:48;;;;;;;;;;;;;;;19.68;50.42;97838.36;605611;234;62249;-72
2023/10/07 03:14:13;;;;;;;;;;;;;;;19.68;50.47;97837.56;605720;234;67918;-73
2023/10/07 03:16:46;;;;;;;;;;;;;;;19.67;50.29;97834.09;605976;234;67377;-73
2023/10/07 03:19:22;;;;;;;;;;;;;;;19.67;50.22;97833.26;605074;234;64766;-68
2023/10/07 03:24:40;;;;;;;;;;;;;;;19.66;50.11;97824.45;604614;234;64738;-68
2023/10/07 03:27:10;;;;;;;;;;;;;;;19.66;50.07;97824.45;604163;234;62695;-68
2023/10/07 03:29:37;;;;;;;;;;;;;;;19.66;50.03;97821.79;604550;234;64864;-67
2023/10/07 03:32:12;;;;;;;;;;;;;;;19.66;50.45;97821.79;604615;234;66846;-72
2023/10/07 03:34:36;;;;;;;;;;;;;;;19.65;50.34;97825.48;604440;234;64948;-67
2023/10/07 03:42:14;;;;;;;;;;;;;;;19.65;50.21;97811.35;596871;234;64757;-72
2023/10/07 03:44:42;;;;;;;;;;;;;;;19.64;50.41;97802.55;604634;234;67038;-72
2023/10/07 03:47:15;;;;;;;;;;;;;;;19.64;50.24;97815.88;604611;234;67559;-72
2023/10/07 03:49:41;;;;;;;;;;;;;;;19.63;49.99;97811.58;604572;234;65696;-72
2023/10/07 03:52:20;;;;;;;;;;;;;;;19.63;50.02;97806.25;604607;234;64458;-72
2023/10/07 03:54:42;;;;;;;;;;;;;;;19.63;50.22;97814.25;603833;234;64647;-72
2023/10/07 03:57:10;;;;;;;;;;;;;;;19.63;50.02;97808.91;604606;234;64461;-72
2023/10/07 03:59:38;;;;;;;;;;;;;;;19.62;50.18;97807.31;604611;234;67245;-72
2023/10/07 04:02:51;;;;;;;;;;;;;;;19.63;50.43;97803.58;604582;234;66881;-67
2023/10/07 04:04:35;;;;;;;;;;;;;;;19.62;50.19;97804.64;600230;234;65802;-67
2023/10/07 04:07:04;;;;;;;;;;;;;;;19.63;49.84;97802.78;604593;234;67174;-67
2023/10/07 04:09:33;;;;;;;;;;;;;;;19.63;49.83;97802.78;604601;234;65645;-67
2023/10/07 04:12:00;;;;;;;;;;;;;;;19.62;49.90;97804.64;604578;234;64632;-67
2023/10/07 04:14:28;;;;;;;;;;;;;;;19.63;50.51;97810.78;599340;234;66990;-72
2023/10/07 04:17:00;;;;;;;;;;;;;;;19.62;50.13;97809.98;599145;234;65040;-72
2023/10/07 04:21:58;;;;;;;;;;;;;;;19.62;49.84;97809.98;599015;234;67143;-72
2023/10/07 04:24:33;;;;;;;;;;;;;;;19.62;50.10;97812.64;599121;234;64784;-72
2023/10/07 04:27:03;;;;;;;;;;;;;;;19.61;50.01;97810.20;598818;234;62458;-71
2023/10/07 04:29:31;;;;;;;;;;;;;;;19.61;49.91;97803.01;599183;234;64878;-72
2023/10/07 04:32:05;;;;;;;;;;;;;;;19.60;50.02;97804.07;598849;234;67728;-72
2023/10/07 04:34:35;;;;;;;;;;;;;;;19.61;50.02;97799.54;598953;236;64738;-72
2023/10/07 04:40:33;;;;;;;;;;;;;;;19.60;49.86;97798.73;599022;234;66897;-71
2023/10/07 04:42:03;;;;;;;;;;;;;;;19.60;50.12;97795.27;597834;236;63971;-71
2023/10/07 04:47:34;;;;;;;;;;;;;;;19.60;50.16;97792.61;599217;234;66801;-71
2023/10/07 04:50:15;;;;;;;;;;;;;;;19.58;49.67;97792.83;598630;234;62389;-71
2023/10/07 04:52:42;;;;;;;;;;;;;;;19.59;49.82;97791.80;598614;234;64403;-71
2023/10/07 04:55:19;;;;;;;;;;;;;;;19.58;49.94;97787.50;599181;234;66937;-71
2023/10/07 05:03:01;;;;;;;;;;;;;;;19.57;50.50;97793.89;599173;234;64598;-66
2023/10/07 05:05:30;;;;;;;;;;;;;;;19.57;50.04;97796.56;599031;234;64580;-66
2023/10/07 05:08:45;;;;;;;;;;;;;;;19.56;49.64;97800.29;599279;234;64486;-66
2023/10/07 05:10:30;;;;;;;;;;;;;;;19.56;49.51;97800.29;594838;234;67618;-66
2023/10/07 05:13:01;;;;;;;;;;;;;;;19.56;49.80;97800.29;600848;234;62165;-66
2023/10/07 05:15:27;;;;;;;;;;;;;;;19.57;49.69;97809.09;604309;235;67008;-66
2023/10/07 05:17:55;;;;;;;;;;;;;;;19.57;50.29;97817.89;604341;235;66630;-66
2023/10/07 05:20:28;;;;;;;;;;;;;;;19.56;50.11;97821.62;604307;235;62533;-66
2023/10/07 05:22:56;;;;;;;;;;;;;;;19.55;50.38;97827.98;604266;235;66747;-67
2023/10/07 05:25:24;;;;;;;;;;;;;;;19.56;49.98;97832.28;604274;235;66860;-67
2023/10/07 05:27:51;;;;;;;;;;;;;;;19.56;49.92;97821.62;604294;235;65730;-67
2023/10/07 05:30:21;;;;;;;;;;;;;;;19.56;49.81;97823.45;604310;235;64616;-67
2023/10/07 05:32:49;;;;;;;;;;;;;;;19.54;50.00;97821.05;604305;235;64758;-67
2023/10/07 05:35:18;;;;;;;;;;;;;;;19.55;49.59;97827.98;604296;235;64672;-67
2023/10/07 05:37:46;;;;;;;;;;;;;;;19.55;50.26;97827.18;604313;235;67057;-67
2023/10/07 05:40:16;;;;;;;;;;;;;;;19.54;50.17;97821.05;604299;235;66519;-67
2023/10/07 05:42:44;;;;;;;;;;;;;;;19.55;49.99;97827.18;604308;235;63466;-67
2023/10/07 05:45:14;;;;;;;;;;;;;;;19.53;50.13;97824.73;604270;235;66763;-67
2023/10/07 05:47:43;;;;;;;;;;;;;;;19.53;49.75;97830.07;604267;235;64592;-67
2023/10/07 05:50:10;;;;;;;;;;;;;;;19.54;49.81;97823.70;604266;235;62522;-67
2023/10/07 05:52:39;;;;;;;;;;;;;;;19.54;49.59;97813.05;604302;235;67688;-67
2023/10/07 05:55:09;;;;;;;;;;;;;;;19.54;49.48;97817.58;604302;235;66655;-68
2023/10/07 05:57:36;;;;;;;;;;;;;;;19.54;49.72;97809.58;604292;235;64548;-66
2023/10/07 06:00:04;;;;;;;;;;;;;;;19.53;49.88;97806.08;604250;235;64563;-72
2023/10/07 06:02:31;;;;;;;;;;;;;;;19.54;50.55;97810.38;604301;235;66850;-72
2023/10/07 06:04:59;;;;;;;;;;;;;;;19.54;50.04;97806.91;604361;235;64628;-73
2023/10/07 06:07:26;;;;;;;;;;;;;;;19.52;49.93;97810.61;604261;235;66543;-73
2023/10/07 06:09:54;;;;;;;;;;;;;;;19.53;49.69;97819.41;604196;235;65436;-74
2023/10/07 06:12:24;;;;;;;;;;;;;;;19.53;49.66;97816.74;603732;235;62511;-74
2023/10/07 06:14:54;;;;;;;;;;;;;;;19.55;49.30;97816.52;598568;234;64984;-71
2023/10/07 06:17:20;;;;;;;;;;;;;;;19.56;49.32;97813.63;598984;234;64777;-71
2023/10/07 06:19:48;;;;;;;;;;;;;;;19.58;49.43;97814.16;599180;236;64905;-71
2023/10/07 06:22:16;;;;;;;;;;;;;;;19.59;49.59;97818.46;599045;234;64496;-71
2023/10/07 06:24:44;;;;;;;;;;;;;;;19.58;49.68;97819.50;599081;234;66984;-71
2023/10/07 06:27:11;;;;;;;;;;;;;;;19.58;51.61;97811.50;599144;234;64699;-71
2023/10/07 06:29:43;;;;;;;;;;;;;;;19.59;50.17;97813.13;603115;233;64535;-72
2023/10/07 06:32:28;;;;;;;;;;;;;;;19.59;50.11;97812.30;607158;233;66859;-71
2023/10/07 06:34:59;;;;;;;;;;;;;;;19.60;50.26;97806.73;607199;233;64639;-70
2023/10/07 06:37:29;;;;;;;;;;;;;;;19.60;50.43;97804.07;606837;233;64254;-72
2023/10/07 06:39:52;;;;;;;;;;;;;;;19.59;50.62;97802.47;607083;233;69218;-70
2023/10/07 06:42:24;;;;;;;;;;;;;;;19.61;50.78;97804.88;607187;233;65957;-71
2023/10/07 06:45:02;;;;;;;;;;;;;;;19.61;51.04;97804.88;607126;233;67100;-70
2023/10/07 06:47:23;;;;;;;;;;;;;;;19.61;51.34;97796.88;606750;233;66952;-69
2023/10/07 06:49:52;;;;;;;;;;;;;;;19.59;52.22;97801.63;607251;233;62365;-72
2023/10/07 06:52:25;;;;;;;;;;;;;;;19.58;51.82;97800.83;607273;233;66799;-72
2023/10/07 06:54:54;;;;;;;;;;;;;;;19.59;52.00;97798.97;607305;233;64137;-71
2023/10/07 06:57:21;;;;;;;;;;;;;;;19.60;52.18;97798.73;607150;233;62662;-65
2023/10/07 06:59:53;;;;;;;;;;;;;;;19.61;52.32;97794.20;607318;233;64334;-66
2023/10/07 07:02:18;;;;;;;;;;;;;;;19.61;52.38;97795.02;607127;233;65005;-66
2023/10/07 07:04:46;;;;;;;;;;;;;;;19.63;52.48;97800.11;607232;233;64732;-66
2023/10/07 07:07:16;;;;;;;;;;;;;;;19.64;52.56;97799.05;607294;233;66724;-65
2023/10/07 07:12:23;;;;;;;;;;;;;;;19.62;52.80;97796.64;607163;232;64637;-65
2023/10/07 07:14:51;;;;;;;;;;;;;;;19.65;52.94;97790.82;607222;233;67802;-66
2023/10/07 07:17:35;;;;;;;;;;;;;;;19.67;53.08;97793.27;607259;233;64296;-66
2023/10/07 07:22:34;;;;;;;;;;;;;;;19.67;53.24;97788.76;595405;233;66500;-66
2023/10/07 07:25:17;;;;;;;;;;;;;;;19.69;53.29;97788.50;607209;233;66743;-66
2023/10/07 07:27:37;;;;;;;;;;;;;;;19.68;53.38;97785.03;606488;233;64801;-66
2023/10/07 07:30:05;;;;;;;;;;;;;;;19.69;53.48;97785.83;606964;233;67222;-66
2023/10/07 07:32:35;;;;;;;;;;;;;;;19.70;53.56;97787.47;607160;233;67758;-65
2023/10/07 07:35:03;;;;;;;;;;;;;;;19.71;53.65;97786.41;607270;233;64664;-66
2023/10/07 07:37:34;;;;;;;;;;;;;;;19.70;53.72;97782.13;607268;233;66615;-66
2023/10/07 07:42:55;;;;;;;;;;;;;;;19.71;53.90;97779.20;607300;233;65032;-66
2023/10/07 07:45:18;;;;;;;;;;;;;;;19.72;53.97;97778.17;607029;233;66588;-66
2023/10/07 07:47:46;;;;;;;;;;;;;;;19.71;54.05;97776.54;607222;233;64292;-66
2023/10/07 07:50:15;;;;;;;;;;;;;;;19.72;54.14;97769.34;607264;233;62649;-66
2023/10/07 07:52:43;;;;;;;;;;;;;;;19.73;54.27;97765.64;607229;233;66695;-65
2023/10/07 07:55:14;;;;;;;;;;;;;;;19.72;54.31;97770.17;607215;233;66358;-65
2023/10/07 07:57:44;;;;;;;;;;;;;;;19.73;54.41;97768.31;607222;233;62471;-66
2023/10/07 08:00:09;;;;;;;;;;;;;;;19.73;54.50;97766.44;607188;233;64314;-65
2023/10/07 08:02:39;;;;;;;;;;;;;;;19.73;54.56;97761.11;607340;233;46642;-66
2023/10/07 08:05:08;;;;;;;;;;;;;;;19.74;54.63;97764.58;607276;233;66104;-67
2023/10/07 08:07:38;;;;;;;;;;;;;;;19.74;54.60;97757.38;607210;233;66733;-67
2023/10/07 08:10:10;;;;;;;;;;;;;;;19.74;54.68;97752.05;607229;233;66500;-65
2023/10/07 08:12:36;;;;;;;;;;;;;;;19.75;54.80;97752.84;607026;233;65881;-66
2023/10/07 08:17:45;;;;;;;;;;;;;;;19.76;54.94;97751.02;607139;233;66879;-65
2023/10/07 08:20:12;;;;;;;;;;;;;;;19.75;55.00;97747.52;607237;233;62460;-65
2023/10/07 08:22:52;;;;;;;;;;;;;;;19.76;55.08;97743.02;607187;233;66939;-66
2023/10/07 08:25:10;;;;;;;;;;;;;;;19.76;54.42;97743.02;606265;233;66563;-65
2023/10/07 08:27:51;;;;;;;;;;;;;;;19.76;55.07;97743.81;607239;233;64842;-66
2023/10/07 08:30:37;;;;;;;;;;;;;;;19.75;54.73;97742.18;606851;233;64596;-68
2023/10/07 08:32:48;;;;;;;;;;;;;;;19.76;54.99;97745.68;606449;233;66589;-66
2023/10/07 08:35:19;;;;;;;;;;;;;;;19.77;57.27;97740.08;607240;233;62429;-65
2023/10/07 08:37:47;;;;;;;;;;;;;;;19.77;55.92;97739.28;607173;233;67487;-66
2023/10/07 08:40:39;;;;;;;;;;;;;;;19.78;55.71;97746.22;607276;233;66760;-67
2023/10/07 08:42:59;;;;;;;;;;;;;;;19.80;56.18;97738.78;606352;233;63350;-67
2023/10/07 08:45:30;;;;;;;;;;;;;;;19.83;57.23;97738.30;607235;233;67239;-66
2023/10/07 08:48:38;;;;;;;;;;;;;;;19.85;58.92;97730.86;607321;233;67115;-66
2023/10/07 08:50:33;;;;;;;;;;;;;;;19.86;59.29;97735.97;604006;233;64701;-66
2023/10/07 08:53:07;;;;;;;;;;;;;;;19.87;59.34;97732.23;607295;233;64263;-67
2023/10/07 08:55:33;;;;;;;;;;;;;;;19.85;56.41;97726.33;607289;233;66810;-67
2023/10/07 08:58:04;;;;;;;;;;;;;;;19.87;57.22;97726.09;607181;233;65673;-66
2023/10/07 09:00:33;;;;;;;;;;;;;;;19.90;58.04;97720.27;607108;233;67070;-66
2023/10/07 09:03:10;;;;;;;;;;;;;;;19.90;57.55;97717.59;607285;233;64789;-66
2023/10/07 09:05:30;;;;;;;;;;;;;;;19.91;57.39;97719.20;606578;233;62501;-66
2023/10/07 09:07:57;;;;;;;;;;;;;;;19.92;56.88;97723.50;606738;233;63915;-67
2023/10/07 09:10:28;;;;;;;;;;;;;;;19.94;59.17;97713.37;606891;233;64713;-66
2023/10/07 09:12:57;;;;;;;;;;;;;;;19.96;59.18;97716.60;606867;233;64573;-66
2023/10/07 09:15:29;;;;;;;;;;;;;;;19.96;59.01;97712.06;607191;233;67293;-66
2023/10/07 09:18:10;;;;;;;;;;;;;;;19.98;58.95;97714.50;607169;233;65507;-65
2023/10/07 09:20:29;;;;;;;;;;;;;;;19.99;58.67;97701.97;606063;233;64624;-66
2023/10/07 09:23:07;;;;;;;;;;;;;;;19.99;58.60;97710.77;607254;233;67075;-66
2023/10/07 09:25:36;;;;;;;;;;;;;;;20.00;58.86;97701.73;606254;233;66823;-66
2023/10/07 09:28:07;;;;;;;;;;;;;;;20.01;59.84;97706.00;589140;237;64750;-67
2023/10/07 09:30:44;;;;;;;;;;;;;;;20.02;59.90;97696.93;589705;237;67145;-67
2023/10/07 09:33:12;;;;;;;;;;;;;;;20.02;58.32;97699.59;588870;237;65247;-67
2023/10/07 09:35:36;;;;;;;;;;;;;;;20.03;58.43;97695.89;588934;237;63547;-68
2023/10/07 09:38:12;;;;;;;;;;;;;;;20.03;58.94;97690.56;589511;237;67280;-67
2023/10/07 09:43:25;;;;;;;;;;;;;;;20.05;58.70;97688.45;589219;237;63582;-68
2023/10/07 09:45:52;;;;;;;;;;;;;;;20.06;58.09;97684.72;589112;237;64945;-67
2023/10/07 09:48:33;;;;;;;;;;;;;;;20.06;57.86;97682.05;589079;237;66834;-67
2023/10/07 09:51:05;;;;;;;;;;;;;;;20.06;57.59;97676.72;589260;237;61931;-66
2023/10/07 09:53:32;;;;;;;;;;;;;;;20.08;57.59;97682.63;589174;237;64616;-66
2023/10/07 09:56:21;;;;;;;;;;;;;;;20.07;58.08;97672.98;589238;237;64825;-66
2023/10/07 09:59:13;;;;;;;;;;;;;;;20.09;57.88;97667.41;588983;237;64837;-67
2023/10/07 10:01:54;;;;;;;;;;;;;;;20.08;58.08;97661.27;588816;237;65054;-66
2023/10/07 10:04:28;;;;;;;;;;;;;;;20.08;58.36;97658.61;589077;237;66988;-65
2023/10/07 10:07:10;;;;;;;;;;;;;;;20.08;58.04;97645.27;589217;237;62461;-64
2023/10/07 10:10:05;;;;;;;;;;;;;;;20.09;57.85;97654.88;589105;237;67911;-68
2023/10/07 10:12:19;;;;;;;;;;;;;;;20.08;57.91;97637.27;589128;234;64836;-68
2023/10/07 10:17:40;;;;;;;;;;;;;;;20.09;57.67;97638.86;603862;235;67117;-68
2023/10/07 10:20:13;;;;;;;;;;;;;;;20.10;57.67;97636.99;603713;235;65773;-68
2023/10/07 10:22:37;;;;;;;;;;;;;;;20.10;57.74;97632.45;603378;235;65041;-68
2023/10/07 10:25:22;;;;;;;;;;;;;;;20.10;57.83;97632.45;603487;235;67894;-66
2023/10/07 10:27:37;;;;;;;;;;;;;;;20.12;55.66;97625.02;603331;235;64956;-70
2023/10/07 10:30:06;;;;;;;;;;;;;;;20.14;54.56;97614.11;603756;235;62347;-67
2023/10/07 10:32:37;;;;;;;;;;;;;;;20.16;55.75;97615.47;603558;235;67087;-67
2023/10/07 10:35:06;;;;;;;;;;;;;;;20.18;56.94;97604.52;603933;235;67059;-67
2023/10/07 10:37:37;;;;;;;;;;;;;;;20.18;57.51;97605.33;603793;235;62723;-67
2023/10/07 10:40:14;;;;;;;;;;;;;;;20.15;57.34;97603.16;603808;235;65774;-66
2023/10/07 10:42:42;;;;;;;;;;;;;;;20.14;57.34;97596.23;603951;235;66603;-67
2023/10/07 10:45:29;;;;;;;;;;;;;;;20.14;57.74;97595.42;603763;235;62418;-66
2023/10/07 10:47:53;;;;;;;;;;;;;;;20.15;57.67;97581.02;603650;235;64969;-68
2023/10/07 10:50:23;;;;;;;;;;;;;;;20.13;56.64;97596.46;604020;235;67385;-68
2023/10/07 10:52:51;;;;;;;;;;;;;;;20.12;57.56;97578.85;604004;235;65715;-66
2023/10/07 10:55:19;;;;;;;;;;;;;;;20.09;57.14;97582.83;603401;235;67242;-66
2023/10/07 10:57:47;;;;;;;;;;;;;;;20.08;57.11;97580.39;603284;235;64986;-67
2023/10/07 11:00:21;;;;;;;;;;;;;;;20.04;56.98;97566.77;603271;235;65204;-66
2023/10/07 11:02:53;;;;;;;;;;;;;;;20.02;56.91;97576.07;603286;235;64539;-66
2023/10/07 11:05:21;;;;;;;;;;;;;;;20.01;57.11;97564.59;603189;235;64812;-66
2023/10/07 11:07:50;;;;;;;;;;;;;;;20.00;57.42;97557.66;603376;235;65768;-66
2023/10/07 11:10:26;;;;;;;;;;;;;;;19.98;57.62;97565.10;603801;235;66868;-66
2023/10/07 11:12:56;;;;;;;;;;;;;;;19.98;57.63;97561.64;601393;235;67852;-67
2023/10/07 11:15:27;;;;;;;;;;;;;;;19.96;57.40;97553.87;595784;238;62837;-67
2023/10/07 11:17:56;;;;;;;;;;;;;;;19.96;56.88;97556.53;595784;238;68318;-67
2023/10/07 11:20:24;;;;;;;;;;;;;;;19.94;56.74;97553.30;595795;238;66874;-67
2023/10/07 11:22:53;;;;;;;;;;;;;;;19.93;56.63;97541.84;595763;238;64858;-67
2023/10/07 11:25:22;;;;;;;;;;;;;;;19.94;56.62;97545.30;595803;238;67076;-67
2023/10/07 11:27:51;;;;;;;;;;;;;;;19.94;56.64;97539.97;595787;238;66808;-68
2023/10/07 11:30:21;;;;;;;;;;;;;;;19.93;56.48;97531.16;595743;238;64597;-67
2023/10/07 11:32:48;;;;;;;;;;;;;;;19.93;56.56;97533.03;595803;238;67100;-67
2023/10/07 11:35:19;;;;;;;;;;;;;;;19.93;56.55;97525.03;595800;238;66910;-67
2023/10/07 11:37:57;;;;;;;;;;;;;;;19.93;56.59;97520.50;595778;238;64738;-67
2023/10/07 11:40:22;;;;;;;;;;;;;;;19.93;56.63;97517.03;595618;237;67224;-67
2023/10/07 11:42:52;;;;;;;;;;;;;;;19.94;56.67;97515.96;595760;238;66861;-67
2023/10/07 11:45:22;;;;;;;;;;;;;;;19.93;56.67;97522.36;595794;238;65640;-67
2023/10/07 11:47:50;;;;;;;;;;;;;;;19.93;56.73;97515.16;595815;238;65807;-67
2023/10/07 11:50:18;;;;;;;;;;;;;;;19.92;56.72;97508.23;595761;238;64838;-67
2023/10/07 11:52:46;;;;;;;;;;;;;;;19.93;56.69;97503.69;595806;238;63462;-67
2023/10/07 11:55:17;;;;;;;;;;;;;;;19.92;56.74;97510.09;595805;236;67247;-67
2023/10/07 11:57:42;;;;;;;;;;;;;;;19.92;56.80;97502.09;595838;235;66375;-67
2023/10/07 12:00:23;;;;;;;;;;;;;;;19.93;56.81;97503.69;595838;238;65636;-67
2023/10/07 12:02:40;;;;;;;;;;;;;;;19.92;56.84;97496.76;595011;237;69171;-67
2023/10/07 12:05:10;;;;;;;;;;;;;;;19.92;56.88;97502.89;595812;238;66859;-67
2023/10/07 12:07:37;;;;;;;;;;;;;;;19.93;56.86;97493.02;595822;238;64640;-67
2023/10/07 12:10:15;;;;;;;;;;;;;;;19.93;56.92;97498.36;595804;238;66915;-67
2023/10/07 12:12:33;;;;;;;;;;;;;;;19.93;56.94;97490.35;595401;237;66712;-67
2023/10/07 12:15:01;;;;;;;;;;;;;;;19.93;56.98;97493.02;595836;238;64601;-67
2023/10/07 12:17:29;;;;;;;;;;;;;;;19.92;57.01;97480.75;595813;238;66789;-67
2023/10/07 12:19:57;;;;;;;;;;;;;;;19.93;57.09;97488.48;595667;235;67785;-67
2023/10/07 12:22:25;;;;;;;;;;;;;;;19.92;57.16;97478.88;601059;234;62524;-67
2023/10/07 12:24:52;;;;;;;;;;;;;;;19.92;57.20;97472.75;602519;235;64612;-67
2023/10/07 12:27:20;;;;;;;;;;;;;;;19.93;57.24;97477.02;602512;235;64807;-67
2023/10/07 12:29:49;;;;;;;;;;;;;;;19.93;57.25;97466.34;602476;235;64564;-67
2023/10/07 12:32:16;;;;;;;;;;;;;;;19.92;57.27;97462.08;602504;235;67361;-67
2023/10/07 12:34:47;;;;;;;;;;;;;;;19.92;57.33;97460.21;602491;235;66943;-71
2023/10/07 12:37:13;;;;;;;;;;;;;;;19.92;57.37;97460.21;602417;235;64637;-71
2023/10/07 12:39:41;;;;;;;;;;;;;;;19.93;57.37;97461.02;602519;235;67241;-71
2023/10/07 12:42:09;;;;;;;;;;;;;;;19.93;57.42;97455.67;602506;235;64937;-71
2023/10/07 12:44:37;;;;;;;;;;;;;;;19.93;57.45;97447.67;602492;235;62631;-67
2023/10/07 12:47:08;;;;;;;;;;;;;;;19.93;57.47;97450.34;602513;235;64812;-67
2023/10/07 12:49:36;;;;;;;;;;;;;;;19.92;57.47;97448.74;602372;235;64801;-67
2023/10/07 12:52:04;;;;;;;;;;;;;;;19.93;57.48;97453.01;602451;235;62477;-67
2023/10/07 12:54:32;;;;;;;;;;;;;;;19.93;57.50;97450.34;602498;235;67033;-67
2023/10/07 12:56:59;;;;;;;;;;;;;;;19.92;57.51;97444.20;602492;235;65013;-67
2023/10/07 12:59:28;;;;;;;;;;;;;;;19.93;57.53;97437.00;602506;235;62467;-67
2023/10/07 13:01:56;;;;;;;;;;;;;;;19.93;57.50;97442.34;602445;235;67130;-66
2023/10/07 13:04:34;;;;;;;;;;;;;;;19.93;57.50;97439.67;602502;235;65649;-67
2023/10/07 13:07:10;;;;;;;;;;;;;;;19.93;57.52;97437.80;602217;235;62463;-68
2023/10/07 13:09:29;;;;;;;;;;;;;;;19.93;57.52;97437.80;601546;235;65073;-68
2023/10/07 13:11:56;;;;;;;;;;;;;;;19.93;57.54;97434.34;602398;235;64559;-67
2023/10/07 13:14:26;;;;;;;;;;;;;;;19.94;57.52;97427.93;602472;235;64574;-67
2023/10/07 13:16:56;;;;;;;;;;;;;;;19.93;57.55;97435.14;602438;235;67911;-67
2023/10/07 13:19:26;;;;;;;;;;;;;;;19.94;57.61;97427.93;602362;235;67251;-67
2023/10/07 13:21:51;;;;;;;;;;;;;;;19.93;57.56;97421.80;602401;235;62446;-68
2023/10/07 13:24:18;;;;;;;;;;;;;;;19.94;57.63;97427.93;602510;235;64926;-67
2023/10/07 13:26:46;;;;;;;;;;;;;;;19.93;57.64;97421.80;602475;235;64891;-68
2023/10/07 13:29:13;;;;;;;;;;;;;;;19.94;57.67;97426.09;602523;235;63323;-68
2023/10/07 13:31:41;;;;;;;;;;;;;;;19.94;57.75;97428.77;602504;235;65018;-67
2023/10/07 13:34:08;;;;;;;;;;;;;;;19.95;57.71;97424.23;602488;235;66875;-68
2023/10/07 13:36:41;;;;;;;;;;;;;;;19.94;57.73;97418.09;602537;235;64621;-67
2023/10/07 13:39:17;;;;;;;;;;;;;;;19.95;57.75;97418.89;602505;235;67444;-67
2023/10/07 13:41:46;;;;;;;;;;;;;;;19.94;57.71;97417.27;602514;235;64918;-67
2023/10/07 13:44:14;;;;;;;;;;;;;;;19.95;57.76;97418.89;602487;235;62647;-68